Time;durP1;ratioP1;P1;durP2;ratioP2;P2;SDS_P1;SDS_P2;PMS_P1;PMS_P2;Temp;Humidity;BMP_temperature;BMP_pressure;BME280_temperature;BME280_humidity;BME280_pressure;Samples;Min_cycle;Max_cycle;Signal;HPM_P1;HPM_P2
2020/12/29 00:01:49;;;;;;;1.98;1.27;;;9.00;78.70;;;;;;5083678;28;20032;-46
2020/12/29 00:04:16;;;;;;;1.25;1.13;;;9.00;78.70;;;;;;5083332;28;20030;-44
2020/12/29 00:06:49;;;;;;;1.30;1.13;;;9.00;78.60;;;;;;5083396;28;20036;-44
2020/12/29 00:09:15;;;;;;;1.25;1.15;;;9.00;78.70;;;;;;5083365;28;20079;-43
2020/12/29 00:11:42;;;;;;;1.52;1.17;;;9.00;78.70;;;;;;5082224;28;20059;-43
2020/12/29 00:14:08;;;;;;;1.23;0.88;;;9.00;78.70;;;;;;5083315;28;20033;-43
2020/12/29 00:16:34;;;;;;;1.48;1.10;;;9.00;78.60;;;;;;5089917;28;20080;-43
2020/12/29 00:19:01;;;;;;;1.27;1.10;;;9.00;78.60;;;;;;5103451;28;20032;-44
2020/12/29 00:21:27;;;;;;;1.42;0.85;;;9.00;78.60;;;;;;5103595;28;20032;-43
2020/12/29 00:23:53;;;;;;;1.23;1.00;;;9.00;78.60;;;;;;5103393;28;20063;-43
2020/12/29 00:26:20;;;;;;;1.90;1.13;;;9.00;78.80;;;;;;5102599;28;20031;-43
2020/12/29 00:28:46;;;;;;;1.45;0.90;;;9.10;78.80;;;;;;5103267;28;20050;-43
2020/12/29 00:31:18;;;;;;;1.48;1.10;;;9.10;78.80;;;;;;5101922;28;20028;-43
2020/12/29 00:33:44;;;;;;;1.85;1.20;;;9.00;78.70;;;;;;5086803;28;20098;-43
2020/12/29 00:36:10;;;;;;;1.20;1.10;;;9.00;78.80;;;;;;5082768;28;20571;-43
2020/12/29 00:38:36;;;;;;;1.30;1.15;;;9.00;78.70;;;;;;5082631;28;20036;-43
2020/12/29 00:41:08;;;;;;;1.60;1.20;;;9.10;78.80;;;;;;5088045;28;20027;-43
2020/12/29 00:43:35;;;;;;;1.25;1.15;;;9.10;78.80;;;;;;5081255;28;20444;-43
2020/12/29 00:46:10;;;;;;;1.25;1.15;;;9.10;78.70;;;;;;5082502;28;20096;-43
2020/12/29 00:48:36;;;;;;;1.27;1.15;;;9.10;78.70;;;;;;5082648;28;20032;-43
2020/12/29 00:51:07;;;;;;;1.85;1.38;;;9.10;78.80;;;;;;5102550;28;20496;-44
2020/12/29 00:53:34;;;;;;;1.00;0.90;;;9.10;78.80;;;;;;5101895;28;20028;-43
2020/12/29 00:56:03;;;;;;;1.67;1.17;;;9.10;78.70;;;;;;5083221;28;20020;-46
2020/12/29 00:58:29;;;;;;;1.58;1.13;;;9.10;78.80;;;;;;5082684;28;20123;-44
2020/12/29 01:00:56;;;;;;;1.08;0.98;;;9.10;78.90;;;;;;5082562;28;20042;-44
2020/12/29 01:03:22;;;;;;;1.87;1.20;;;9.10;78.80;;;;;;5082509;28;20103;-44
2020/12/29 01:05:48;;;;;;;1.42;1.10;;;9.10;78.80;;;;;;5080822;28;20032;-44
2020/12/29 01:08:14;;;;;;;1.38;1.00;;;9.10;78.80;;;;;;5082627;28;20036;-44
2020/12/29 01:10:41;;;;;;;1.65;1.30;;;9.10;78.70;;;;;;5081240;28;20059;-43
2020/12/29 01:13:07;;;;;;;1.70;1.13;;;9.10;78.80;;;;;;5082432;28;20103;-43
2020/12/29 01:15:34;;;;;;;1.67;1.10;;;9.10;78.80;;;;;;5082272;28;20047;-44
2020/12/29 01:18:00;;;;;;;1.10;0.83;;;9.10;78.80;;;;;;5082346;28;20057;-43
2020/12/29 01:20:27;;;;;;;1.50;1.40;;;9.10;78.90;;;;;;5081195;28;20289;-43
2020/12/29 01:22:53;;;;;;;1.38;1.13;;;9.10;78.80;;;;;;5082394;28;20025;-43
2020/12/29 01:25:20;;;;;;;1.77;1.27;;;9.10;78.80;;;;;;5082487;28;20025;-43
2020/12/29 01:27:47;;;;;;;1.27;1.17;;;9.10;78.80;;;;;;5082346;28;20158;-43
2020/12/29 01:30:14;;;;;;;1.33;1.15;;;9.10;78.80;;;;;;5082545;28;20019;-43
2020/12/29 01:32:40;;;;;;;1.08;0.85;;;9.10;78.80;;;;;;5089818;28;20024;-43
2020/12/29 01:35:06;;;;;;;1.98;1.13;;;9.10;78.90;;;;;;5102388;28;20032;-42
2020/12/29 01:37:36;;;;;;;1.33;0.93;;;9.10;78.80;;;;;;5086106;28;20075;-43
2020/12/29 01:40:05;;;;;;;1.63;1.20;;;9.10;78.80;;;;;;5086166;28;20085;-43
2020/12/29 01:42:31;;;;;;;1.67;1.25;;;9.10;78.90;;;;;;5086306;28;20024;-45
2020/12/29 01:44:58;;;;;;;1.23;1.00;;;9.10;78.80;;;;;;5086263;28;20033;-43
2020/12/29 01:47:25;;;;;;;1.10;0.82;;;9.20;78.90;;;;;;5086001;28;20052;-43
2020/12/29 01:49:52;;;;;;;;;;;9.10;78.80;;;;;;5088263;28;20024;-44
2020/12/29 01:52:18;;;;;;;1.75;1.20;;;9.20;79.00;;;;;;5095350;28;19908;-44
2020/12/29 01:54:44;;;;;;;1.63;0.85;;;9.10;78.90;;;;;;5106327;28;20027;-43
2020/12/29 01:57:10;;;;;;;1.33;1.05;;;9.10;79.00;;;;;;5106092;28;20028;-43
2020/12/29 01:59:36;;;;;;;1.55;1.15;;;9.20;79.20;;;;;;5087889;28;20601;-43
2020/12/29 02:02:02;;;;;;;1.60;1.48;;;9.20;79.10;;;;;;5104143;28;20036;-43
2020/12/29 02:04:28;;;;;;;1.33;0.95;;;9.20;79.10;;;;;;5084366;28;20088;-43
2020/12/29 02:06:55;;;;;;;1.58;1.10;;;9.20;79.40;;;;;;5083885;28;20043;-44
2020/12/29 02:09:21;;;;;;;2.10;1.27;;;9.20;79.20;;;;;;5084377;28;20128;-43
2020/12/29 02:11:47;;;;;;;1.50;1.10;;;9.20;79.30;;;;;;5085772;28;20021;-44
2020/12/29 02:14:15;;;;;;;1.30;1.15;;;9.20;79.40;;;;;;5096334;28;20024;-44
2020/12/29 02:16:42;;;;;;;1.58;1.10;;;9.20;79.30;;;;;;5087408;28;20028;-44
2020/12/29 02:19:08;;;;;;;1.42;1.08;;;9.20;79.60;;;;;;5105935;28;20134;-43
2020/12/29 02:21:35;;;;;;;1.73;1.17;;;9.20;79.40;;;;;;5105908;28;20031;-43
2020/12/29 02:24:02;;;;;;;1.80;1.25;;;9.20;79.50;;;;;;5105951;28;20039;-43
2020/12/29 02:26:31;;;;;;;1.70;1.45;;;9.20;79.40;;;;;;5105413;28;20039;-44
2020/12/29 02:29:05;;;;;;;1.42;1.00;;;9.20;79.80;;;;;;5105454;28;20051;-44
2020/12/29 02:31:31;;;;;;;1.65;1.25;;;9.20;79.70;;;;;;5104167;28;20482;-43
2020/12/29 02:33:57;;;;;;;1.67;1.20;;;9.20;79.60;;;;;;5087476;28;20035;-43
2020/12/29 02:36:23;;;;;;;1.40;1.00;;;9.20;79.50;;;;;;5085289;28;20503;-43
2020/12/29 02:38:50;;;;;;;1.60;1.10;;;9.20;79.60;;;;;;5084884;28;20090;-43
2020/12/29 02:41:19;;;;;;;1.55;1.23;;;9.20;80.00;;;;;;5085164;28;20473;-43
2020/12/29 02:43:46;;;;;;;2.08;1.10;;;9.20;79.70;;;;;;5085164;28;20032;-43
2020/12/29 02:46:15;;;;;;;1.63;1.20;;;9.20;79.90;;;;;;5085133;28;20097;-43
2020/12/29 02:48:41;;;;;;;1.42;1.10;;;9.20;79.60;;;;;;5086101;28;20112;-43
2020/12/29 02:51:08;;;;;;;1.13;0.75;;;9.20;80.00;;;;;;5096163;28;20117;-43
2020/12/29 02:53:34;;;;;;;1.83;1.02;;;9.20;79.90;;;;;;5105339;28;20034;-43
2020/12/29 02:56:00;;;;;;;1.65;1.05;;;9.20;80.10;;;;;;5105242;28;20136;-43
2020/12/29 02:58:26;;;;;;;1.00;0.90;;;9.30;80.00;;;;;;5096918;28;20029;-43
2020/12/29 03:00:52;;;;;;;1.92;1.10;;;9.20;79.90;;;;;;5084799;28;20029;-44
2020/12/29 03:03:18;;;;;;;2.17;1.10;;;9.30;80.40;;;;;;5084777;28;20401;-43
2020/12/29 03:05:45;;;;;;;1.42;1.10;;;9.30;80.00;;;;;;5084734;28;20028;-44
2020/12/29 03:08:11;;;;;;;1.90;1.10;;;9.30;80.10;;;;;;5084154;28;20021;-43
2020/12/29 03:10:37;;;;;;;2.17;0.95;;;9.30;80.00;;;;;;5084504;28;20036;-43
2020/12/29 03:13:03;;;;;;;1.30;1.10;;;9.30;79.90;;;;;;5084599;28;20033;-43
2020/12/29 03:15:29;;;;;;;1.35;1.20;;;9.30;79.80;;;;;;5084566;28;20051;-43
2020/12/29 03:17:56;;;;;;;1.27;1.05;;;9.20;79.80;;;;;;5083976;28;20059;-43
2020/12/29 03:20:22;;;;;;;1.10;0.75;;;9.30;80.00;;;;;;5084528;28;20029;-43
2020/12/29 03:22:48;;;;;;;1.50;1.10;;;9.30;80.00;;;;;;5084336;28;20033;-44
2020/12/29 03:25:14;;;;;;;1.40;1.10;;;9.20;79.90;;;;;;5084474;28;20520;-43
2020/12/29 03:27:40;;;;;;;1.50;1.00;;;9.30;80.00;;;;;;5084423;28;20020;-43
2020/12/29 03:30:07;;;;;;;1.10;1.00;;;9.20;80.00;;;;;;5084013;28;20031;-43
2020/12/29 03:32:33;;;;;;;1.73;1.10;;;9.20;80.10;;;;;;5090605;28;20031;-43
2020/12/29 03:34:59;;;;;;;1.38;1.13;;;9.20;80.00;;;;;;5104415;28;20049;-44
2020/12/29 03:37:25;;;;;;;2.17;1.20;;;9.30;80.00;;;;;;5089008;28;20054;-44
2020/12/29 03:39:51;;;;;;;1.50;0.93;;;9.30;80.00;;;;;;5084613;28;20024;-43
2020/12/29 03:42:17;;;;;;;1.85;1.27;;;9.30;80.30;;;;;;5096130;28;20092;-43
2020/12/29 03:44:44;;;;;;;1.48;1.17;;;9.30;80.20;;;;;;5083952;28;20032;-43
2020/12/29 03:47:10;;;;;;;2.45;1.40;;;9.30;80.50;;;;;;5083977;28;20025;-43
2020/12/29 03:49:36;;;;;;;1.70;1.20;;;9.30;80.10;;;;;;5083453;28;20056;-43
2020/12/29 03:52:02;;;;;;;1.60;1.40;;;9.30;80.00;;;;;;5084004;28;20043;-43
2020/12/29 03:54:28;;;;;;;1.85;1.33;;;9.30;80.10;;;;;;5083753;28;20055;-43
2020/12/29 03:56:54;;;;;;;1.98;1.30;;;9.30;80.20;;;;;;5083545;28;20035;-43
2020/12/29 03:59:21;;;;;;;1.27;1.00;;;9.30;80.10;;;;;;5083294;28;20055;-43
2020/12/29 04:01:47;;;;;;;1.10;1.00;;;9.30;80.30;;;;;;5082882;28;20021;-43
2020/12/29 04:04:13;;;;;;;1.38;1.00;;;9.30;80.40;;;;;;5083573;28;20755;-43
2020/12/29 04:06:39;;;;;;;1.75;1.20;;;9.30;80.40;;;;;;5083476;28;20036;-43
2020/12/29 04:09:05;;;;;;;1.33;1.02;;;9.30;80.30;;;;;;5083145;28;20028;-43
2020/12/29 04:11:31;;;;;;;1.17;0.93;;;9.30;80.40;;;;;;5083469;28;20033;-43
2020/12/29 04:13:57;;;;;;;3.30;1.10;;;9.30;80.40;;;;;;5083396;28;20046;-43
2020/12/29 04:16:24;;;;;;;1.73;1.38;;;9.30;80.30;;;;;;5083169;28;20024;-44
2020/12/29 04:18:50;;;;;;;1.20;1.10;;;9.20;80.30;;;;;;5083211;28;20052;-43
2020/12/29 04:21:16;;;;;;;1.67;1.30;;;9.20;80.30;;;;;;5086003;28;20024;-43
2020/12/29 04:23:43;;;;;;;2.20;1.20;;;9.30;80.40;;;;;;5083084;28;20032;-43
2020/12/29 04:26:13;;;;;;;2.92;1.23;;;9.20;80.10;;;;;;5083193;28;20534;-43
2020/12/29 04:28:39;;;;;;;1.52;1.23;;;9.30;80.40;;;;;;5082854;28;20043;-44
2020/12/29 04:31:08;;;;;;;1.73;1.30;;;9.30;80.10;;;;;;5083099;28;20093;-43
2020/12/29 04:33:34;;;;;;;1.27;0.88;;;9.30;80.10;;;;;;5083097;28;20025;-43
2020/12/29 04:36:00;;;;;;;1.80;1.33;;;9.20;80.80;;;;;;5082984;28;20046;-43
2020/12/29 04:38:26;;;;;;;1.42;1.10;;;9.30;80.10;;;;;;5082695;28;20036;-44
2020/12/29 04:40:53;;;;;;;1.10;0.90;;;9.20;80.10;;;;;;5082900;28;20102;-43
2020/12/29 04:43:20;;;;;;;1.48;1.02;;;9.30;80.00;;;;;;5088477;28;20056;-44
2020/12/29 04:45:46;;;;;;;1.70;1.27;;;9.20;80.00;;;;;;5086166;28;20025;-44
2020/12/29 04:48:12;;;;;;;3.05;1.17;;;9.30;80.00;;;;;;5081424;28;20024;-43
2020/12/29 04:50:38;;;;;;;2.45;1.35;;;9.20;79.90;;;;;;5081359;28;20024;-43
2020/12/29 04:53:06;;;;;;;1.60;1.20;;;9.20;79.90;;;;;;5081422;28;20084;-43
2020/12/29 04:55:33;;;;;;;1.73;1.10;;;9.20;79.80;;;;;;5065104;28;20055;-44
2020/12/29 04:58:02;;;;;;;1.50;1.10;;;9.20;79.80;;;;;;5064777;28;20111;-43
2020/12/29 05:00:28;;;;;;;1.23;0.90;;;9.30;79.80;;;;;;5082397;28;20103;-43
2020/12/29 05:02:54;;;;;;;1.25;1.10;;;9.30;79.80;;;;;;5082700;28;20025;-43
2020/12/29 05:05:23;;;;;;;1.83;1.00;;;9.20;79.70;;;;;;5082718;28;20039;-43
2020/12/29 05:07:50;;;;;;;1.30;1.17;;;9.20;79.60;;;;;;5086324;28;20444;-43
2020/12/29 05:10:16;;;;;;;1.50;1.10;;;9.20;79.60;;;;;;5082265;28;20061;-43
2020/12/29 05:13:00;;;;;;;1.45;1.08;;;9.20;79.50;;;;;;5082425;28;20037;-44
2020/12/29 05:15:27;;;;;;;1.50;1.20;;;9.20;79.50;;;;;;5082364;28;20029;-43
2020/12/29 05:17:53;;;;;;;0.90;0.80;;;9.20;79.40;;;;;;5082282;28;20103;-43
2020/12/29 05:20:33;;;;;;;1.33;1.15;;;9.20;80.20;;;;;;5064324;28;20021;-43
2020/12/29 05:23:00;;;;;;;2.17;1.20;;;9.20;79.50;;;;;;5082628;28;20036;-43
2020/12/29 05:25:26;;;;;;;1.90;1.30;;;9.20;79.40;;;;;;5082499;28;20031;-43
2020/12/29 05:27:52;;;;;;;1.77;1.13;;;9.20;79.40;;;;;;5082546;28;20110;-44
2020/12/29 05:30:18;;;;;;;1.05;0.90;;;9.20;79.40;;;;;;5082005;28;20024;-43
2020/12/29 05:32:44;;;;;;;1.40;1.20;;;9.20;79.40;;;;;;5072586;28;20817;-43
2020/12/29 05:35:12;;;;;;;1.10;1.00;;;9.20;79.40;;;;;;5102620;28;20020;-44
2020/12/29 05:37:38;;;;;;;;;;;9.20;79.40;;;;;;5101520;28;20044;-43
2020/12/29 05:40:24;;;;;;;1.90;1.20;;;9.20;79.40;;;;;;5102227;28;20349;-44
2020/12/29 05:42:52;;;;;;;1.80;1.48;;;9.20;79.40;;;;;;5102465;28;20115;-43
2020/12/29 05:45:18;;;;;;;1.77;1.40;;;9.10;79.40;;;;;;5099277;28;20055;-43
2020/12/29 05:47:49;;;;;;;1.45;1.10;;;9.20;79.40;;;;;;5091997;28;20056;-43
2020/12/29 05:50:15;;;;;;;2.58;1.30;;;9.20;79.50;;;;;;5080463;28;20032;-43
2020/12/29 05:52:41;;;;;;;1.55;1.15;;;9.20;79.40;;;;;;5082388;28;20021;-44
2020/12/29 05:55:07;;;;;;;1.90;1.30;;;9.20;79.50;;;;;;5080674;28;20025;-43
2020/12/29 05:57:33;;;;;;;2.00;1.42;;;9.20;79.50;;;;;;5051604;28;20047;-43
2020/12/29 06:00:00;;;;;;;2.95;1.23;;;9.10;79.50;;;;;;5090589;28;20044;-44
2020/12/29 06:02:26;;;;;;;1.80;1.20;;;9.10;79.50;;;;;;5086355;28;20092;-43
2020/12/29 06:04:52;;;;;;;1.52;1.20;;;9.10;79.40;;;;;;5102210;28;20024;-43
2020/12/29 06:07:18;;;;;;;2.30;1.35;;;9.10;79.50;;;;;;5084085;28;20020;-43
2020/12/29 06:09:44;;;;;;;1.63;1.45;;;9.10;79.50;;;;;;5084080;28;20028;-43
2020/12/29 06:12:10;;;;;;;1.40;1.20;;;9.10;79.50;;;;;;5084193;28;20020;-44
2020/12/29 06:14:43;;;;;;;1.45;1.13;;;9.10;79.50;;;;;;5084157;28;20093;-43
2020/12/29 06:17:09;;;;;;;2.17;1.58;;;9.10;79.50;;;;;;5084527;28;20429;-43
2020/12/29 06:19:35;;;;;;;1.60;1.40;;;9.10;79.50;;;;;;5083652;28;20066;-42
2020/12/29 06:22:01;;;;;;;2.28;1.40;;;9.10;79.50;;;;;;5084137;28;20094;-45
2020/12/29 06:24:27;;;;;;;2.22;1.40;;;9.10;79.50;;;;;;5103402;28;20028;-44
2020/12/29 06:26:55;;;;;;;2.85;1.20;;;9.10;79.60;;;;;;5087849;28;20020;-43
2020/12/29 06:29:22;;;;;;;1.95;1.30;;;9.10;79.50;;;;;;5103597;28;20034;-43
2020/12/29 06:31:51;;;;;;;1.80;1.20;;;9.00;79.40;;;;;;5103080;28;20031;-43
2020/12/29 06:34:18;;;;;;;1.50;1.20;;;9.00;79.50;;;;;;5087650;28;20071;-43
2020/12/29 06:36:47;;;;;;;1.60;1.27;;;9.00;79.40;;;;;;5105658;28;20036;-44
2020/12/29 06:39:14;;;;;;;2.20;1.40;;;9.00;79.40;;;;;;5105796;28;20088;-44
2020/12/29 06:41:40;;;;;;;1.75;1.33;;;9.00;79.40;;;;;;5090929;28;20021;-43
2020/12/29 06:44:06;;;;;;;2.10;1.40;;;9.00;79.40;;;;;;5101531;28;20039;-43
2020/12/29 06:46:32;;;;;;;1.60;1.30;;;9.00;79.40;;;;;;5087350;28;20040;-43
2020/12/29 06:49:18;;;;;;;2.10;1.55;;;9.00;79.40;;;;;;5105467;28;20032;-44
2020/12/29 06:51:45;;;;;;;1.88;1.27;;;9.00;79.50;;;;;;5103947;28;20016;-43
2020/12/29 06:54:13;;;;;;;1.83;1.40;;;9.00;79.50;;;;;;5103944;28;20762;-43
2020/12/29 06:56:54;;;;;;;2.22;1.33;;;9.00;79.50;;;;;;5103846;28;20051;-44
2020/12/29 06:59:21;;;;;;;1.60;1.40;;;9.00;79.50;;;;;;5087093;28;20024;-43
2020/12/29 07:01:49;;;;;;;1.92;1.38;;;9.00;79.40;;;;;;5104772;28;20047;-42
2020/12/29 07:04:15;;;;;;;2.28;1.30;;;9.00;79.40;;;;;;5103805;28;20036;-44
2020/12/29 07:06:42;;;;;;;3.75;1.50;;;8.90;79.40;;;;;;5103913;28;20020;-43
2020/12/29 07:09:09;;;;;;;1.50;1.15;;;9.00;79.50;;;;;;5101613;28;20028;-42
2020/12/29 07:11:35;;;;;;;1.97;1.50;;;8.90;79.40;;;;;;5104744;28;20119;-44
2020/12/29 07:14:05;;;;;;;3.72;1.50;;;8.90;79.40;;;;;;5104742;28;20058;-44
2020/12/29 07:16:31;;;;;;;1.77;1.17;;;8.90;79.40;;;;;;5104750;28;20134;-43
2020/12/29 07:19:10;;;;;;;1.73;1.27;;;8.90;79.40;;;;;;5104799;28;20036;-43
2020/12/29 07:21:36;;;;;;;1.95;1.40;;;8.90;79.50;;;;;;5086589;28;20016;-43
2020/12/29 07:24:06;;;;;;;1.90;1.58;;;8.90;79.40;;;;;;5104706;28;20039;-43
2020/12/29 07:26:39;;;;;;;2.47;1.27;;;8.90;79.50;;;;;;5104708;28;20067;-43
2020/12/29 07:29:06;;;;;;;2.80;2.00;;;8.90;79.50;;;;;;5104688;28;20066;-44
2020/12/29 07:31:40;;;;;;;1.85;1.30;;;8.90;79.50;;;;;;5104425;28;20110;-43
2020/12/29 07:34:13;;;;;;;2.45;1.30;;;8.90;79.50;;;;;;5103093;28;20024;-43
2020/12/29 07:36:47;;;;;;;1.63;1.52;;;8.90;79.50;;;;;;5104290;28;20032;-43
2020/12/29 07:39:14;;;;;;;2.40;1.58;;;8.80;79.50;;;;;;5082596;28;20028;-43
2020/12/29 07:41:40;;;;;;;2.42;1.75;;;8.80;79.50;;;;;;5092648;28;20031;-43
2020/12/29 07:44:06;;;;;;;2.83;1.60;;;8.80;79.60;;;;;;5086593;28;20040;-43
2020/12/29 07:46:33;;;;;;;2.20;1.67;;;8.80;79.50;;;;;;5082650;28;20036;-43
2020/12/29 07:48:59;;;;;;;2.05;1.65;;;8.80;79.50;;;;;;5083958;28;20781;-43
2020/12/29 07:51:26;;;;;;;2.60;1.63;;;8.80;79.50;;;;;;5083577;28;20031;-44
2020/12/29 07:53:53;;;;;;;2.05;1.42;;;8.80;79.50;;;;;;5083927;28;20041;-43
2020/12/29 07:56:19;;;;;;;2.63;1.75;;;8.80;79.50;;;;;;5083858;28;20074;-43
2020/12/29 07:58:45;;;;;;;2.00;1.60;;;8.80;79.50;;;;;;5083842;28;20115;-43
2020/12/29 08:01:13;;;;;;;2.22;1.60;;;8.80;79.50;;;;;;5083303;28;20027;-44
2020/12/29 08:03:39;;;;;;;3.60;1.80;;;8.70;79.40;;;;;;5083676;28;20036;-43
2020/12/29 08:06:14;;;;;;;2.53;1.65;;;8.70;79.40;;;;;;5083477;28;20024;-43
2020/12/29 08:08:41;;;;;;;3.08;1.90;;;8.70;79.50;;;;;;5082385;28;20088;-43
2020/12/29 08:11:11;;;;;;;3.78;1.73;;;8.70;79.50;;;;;;5083234;28;20091;-44
2020/12/29 08:13:37;;;;;;;3.88;2.10;;;8.70;79.40;;;;;;5083569;28;20043;-43
2020/12/29 08:16:03;;;;;;;3.00;2.15;;;8.70;79.50;;;;;;5065325;28;20028;-42
2020/12/29 08:18:29;;;;;;;2.00;1.60;;;8.70;79.50;;;;;;5083258;28;20116;-43
2020/12/29 08:20:57;;;;;;;3.33;1.75;;;8.70;79.50;;;;;;5083190;28;20028;-43
2020/12/29 08:23:24;;;;;;;2.83;1.73;;;8.70;79.50;;;;;;5084605;28;20039;-43
2020/12/29 08:25:58;;;;;;;4.10;2.00;;;8.70;79.50;;;;;;5103465;28;20698;-44
2020/12/29 08:28:25;;;;;;;2.97;1.95;;;8.70;79.50;;;;;;5103677;28;20107;-43
2020/12/29 08:30:51;;;;;;;;;;;8.70;79.50;;;;;;5103831;28;20040;-44
2020/12/29 08:33:19;;;;;;;2.15;1.95;;;8.60;79.50;;;;;;5103177;28;19929;-44
2020/12/29 08:35:50;;;;;;;3.33;1.92;;;8.60;79.50;;;;;;5102111;28;20032;-43
2020/12/29 08:38:29;;;;;;;2.70;1.98;;;8.60;79.50;;;;;;5085513;28;20094;-44
2020/12/29 08:41:14;;;;;;;3.28;2.05;;;8.60;79.50;;;;;;5102964;28;20028;-47
2020/12/29 08:43:45;;;;;;;3.15;2.28;;;8.60;79.50;;;;;;5101716;28;20031;-43
2020/12/29 08:46:12;;;;;;;4.32;1.98;;;8.60;79.50;;;;;;5103198;28;20027;-42
2020/12/29 08:48:40;;;;;;;3.40;2.40;;;8.60;79.50;;;;;;5102746;28;20052;-43
2020/12/29 08:51:17;;;;;;;3.08;2.30;;;8.60;79.50;;;;;;5101872;28;20134;-43
2020/12/29 08:53:44;;;;;;;3.00;1.85;;;8.50;79.40;;;;;;5102716;28;20088;-43
2020/12/29 08:56:25;;;;;;;3.15;1.92;;;8.60;79.60;;;;;;5103034;28;20028;-43
2020/12/29 08:58:51;;;;;;;4.13;2.25;;;8.50;79.50;;;;;;5103007;28;20059;-43
2020/12/29 09:01:34;;;;;;;3.13;1.80;;;8.50;79.50;;;;;;5102545;28;20066;-43
2020/12/29 09:04:29;;;;;;;4.25;2.78;;;8.50;79.50;;;;;;5084335;28;20077;-44
2020/12/29 09:07:06;;;;;;;3.42;2.25;;;8.50;79.50;;;;;;5082498;28;20033;-44
2020/12/29 09:09:57;;;;;;;2.80;1.95;;;8.50;79.50;;;;;;5082548;28;20039;-43
2020/12/29 09:12:29;;;;;;;2.92;2.33;;;8.50;79.60;;;;;;5068252;28;20048;-43
2020/12/29 09:15:09;;;;;;;3.80;2.15;;;8.50;79.60;;;;;;5083763;28;20028;-43
2020/12/29 09:17:36;;;;;;;2.50;2.00;;;8.50;79.60;;;;;;5080908;28;20056;-43
2020/12/29 09:20:29;;;;;;;;;;;8.50;79.60;;;;;;5082997;28;20025;-43
2020/12/29 09:23:15;;;;;;;2.88;2.30;;;8.40;79.50;;;;;;5078451;28;19905;-43
2020/12/29 09:25:44;;;;;;;2.53;2.15;;;8.40;79.60;;;;;;5081121;28;20134;-43
2020/12/29 09:28:17;;;;;;;3.60;2.38;;;8.40;79.60;;;;;;5082499;28;20092;-43
2020/12/29 09:30:56;;;;;;;3.92;2.60;;;8.40;79.60;;;;;;5082233;28;20031;-43
2020/12/29 09:33:22;;;;;;;4.68;2.47;;;8.40;79.60;;;;;;5082304;28;20035;-43
2020/12/29 09:35:49;;;;;;;3.58;2.30;;;8.40;79.60;;;;;;5082444;28;20588;-43
2020/12/29 09:38:15;;;;;;;3.30;2.53;;;8.40;79.50;;;;;;5086818;28;20070;-43
2020/12/29 09:40:41;;;;;;;3.25;2.42;;;8.40;79.60;;;;;;5102532;28;20059;-43
2020/12/29 09:43:08;;;;;;;4.47;2.45;;;8.40;79.60;;;;;;5102500;28;20503;-43
2020/12/29 09:45:34;;;;;;;4.72;2.33;;;8.40;79.60;;;;;;5102364;28;20051;-43
2020/12/29 09:48:00;;;;;;;4.43;2.63;;;8.40;79.60;;;;;;5102681;28;20028;-43
2020/12/29 09:50:26;;;;;;;5.35;2.60;;;8.40;79.70;;;;;;5102474;28;20050;-44
2020/12/29 09:52:52;;;;;;;3.10;2.40;;;8.30;79.60;;;;;;5099912;28;20048;-43
2020/12/29 09:55:18;;;;;;;3.25;2.60;;;8.30;79.60;;;;;;5082897;28;20021;-43
2020/12/29 09:57:44;;;;;;;3.60;2.60;;;8.30;79.60;;;;;;5082219;28;20040;-43
2020/12/29 10:00:11;;;;;;;3.92;2.58;;;8.30;79.60;;;;;;5084068;28;20080;-43
2020/12/29 10:02:37;;;;;;;5.38;2.47;;;8.30;79.60;;;;;;5092759;28;20031;-44
2020/12/29 10:05:03;;;;;;;3.53;2.70;;;8.30;79.60;;;;;;5106108;28;20052;-43
2020/12/29 10:07:29;;;;;;;3.83;2.40;;;8.30;79.60;;;;;;5090484;28;20024;-43
2020/12/29 10:09:55;;;;;;;3.78;2.40;;;8.30;79.60;;;;;;5085945;28;20111;-43
2020/12/29 10:12:21;;;;;;;4.53;2.50;;;8.30;79.70;;;;;;5085694;28;20027;-43
2020/12/29 10:14:48;;;;;;;4.70;2.63;;;8.20;79.60;;;;;;5085741;28;20039;-43
2020/12/29 10:17:14;;;;;;;3.35;2.50;;;8.30;79.60;;;;;;5085565;28;20107;-43
2020/12/29 10:19:40;;;;;;;3.90;2.80;;;8.20;79.60;;;;;;5085645;28;20017;-43
2020/12/29 10:22:06;;;;;;;4.70;2.80;;;8.20;79.60;;;;;;5085631;28;20060;-43
2020/12/29 10:24:32;;;;;;;4.50;2.72;;;8.20;79.60;;;;;;5085301;28;20033;-43
2020/12/29 10:26:58;;;;;;;3.42;2.63;;;8.20;79.60;;;;;;5093493;28;20024;-43
2020/12/29 10:29:25;;;;;;;4.50;2.38;;;8.20;79.60;;;;;;5105985;28;20035;-43
2020/12/29 10:31:51;;;;;;;3.25;2.67;;;8.20;79.70;;;;;;5105342;28;20028;-43
2020/12/29 10:34:17;;;;;;;3.47;2.85;;;8.20;79.60;;;;;;5085065;28;20064;-42
2020/12/29 10:36:44;;;;;;;4.55;3.00;;;8.20;79.70;;;;;;5093382;28;20092;-43
2020/12/29 10:39:10;;;;;;;2.63;1.83;;;8.20;79.70;;;;;;5105581;28;20050;-43
2020/12/29 10:41:37;;;;;;;3.70;2.70;;;8.10;79.60;;;;;;5093633;28;20094;-43
2020/12/29 10:44:04;;;;;;;3.53;2.65;;;8.10;79.60;;;;;;5105448;28;20062;-43
2020/12/29 10:46:30;;;;;;;4.10;3.03;;;8.10;79.60;;;;;;5104034;28;20028;-43
2020/12/29 10:48:56;;;;;;;5.80;2.72;;;8.10;79.70;;;;;;5105560;28;20626;-43
2020/12/29 10:51:24;;;;;;;3.95;2.67;;;8.10;79.60;;;;;;5105358;28;20074;-42
2020/12/29 10:53:51;;;;;;;4.22;3.00;;;8.10;79.60;;;;;;5105082;28;20024;-44
2020/12/29 10:56:17;;;;;;;4.72;2.85;;;8.10;79.60;;;;;;5102596;28;20020;-44
2020/12/29 10:58:44;;;;;;;3.85;2.88;;;8.10;79.60;;;;;;5099807;28;20062;-43
2020/12/29 11:01:21;;;;;;;3.70;2.47;;;8.10;79.60;;;;;;5105181;28;20024;-43
2020/12/29 11:03:47;;;;;;;3.47;2.83;;;8.10;79.60;;;;;;5104930;28;20276;-43
2020/12/29 11:06:20;;;;;;;4.60;2.67;;;8.10;79.60;;;;;;5100255;28;20032;-43
2020/12/29 11:08:47;;;;;;;3.38;2.22;;;8.10;79.60;;;;;;5085005;28;20036;-43
2020/12/29 11:11:13;;;;;;;3.72;3.00;;;8.00;79.60;;;;;;5084208;28;20025;-44
2020/12/29 11:13:40;;;;;;;3.25;2.35;;;8.00;79.60;;;;;;5084574;28;20024;-44
2020/12/29 11:16:06;;;;;;;3.90;2.70;;;8.00;79.60;;;;;;5084736;28;20024;-44
2020/12/29 11:18:32;;;;;;;4.22;2.85;;;8.00;79.60;;;;;;5084419;28;20059;-44
2020/12/29 11:20:58;;;;;;;3.40;2.88;;;8.00;79.70;;;;;;5084490;28;20025;-43
2020/12/29 11:23:24;;;;;;;3.30;2.47;;;8.00;79.70;;;;;;5084534;28;20020;-43
2020/12/29 11:25:50;;;;;;;4.57;2.88;;;8.00;79.70;;;;;;5084609;28;20031;-42
2020/12/29 11:28:17;;;;;;;4.05;2.83;;;8.00;79.70;;;;;;5084673;28;20030;-44
2020/12/29 11:30:45;;;;;;;4.82;2.70;;;7.90;79.60;;;;;;5084147;28;20062;-43
2020/12/29 11:33:12;;;;;;;4.72;2.83;;;7.90;79.60;;;;;;5096344;28;20032;-43
2020/12/29 11:35:38;;;;;;;4.57;3.08;;;7.90;79.60;;;;;;5104240;28;20020;-43
2020/12/29 11:38:04;;;;;;;4.68;2.85;;;7.90;79.70;;;;;;5103988;28;20028;-44
2020/12/29 11:40:30;;;;;;;4.25;3.22;;;7.90;79.60;;;;;;5098451;28;20024;-43
2020/12/29 11:42:56;;;;;;;3.58;2.90;;;7.90;79.70;;;;;;5095704;28;20213;-43
2020/12/29 11:45:22;;;;;;;5.18;3.03;;;7.90;79.70;;;;;;5104263;28;20396;-43
2020/12/29 11:47:49;;;;;;;3.83;2.70;;;7.90;79.70;;;;;;5104344;28;20029;-43
2020/12/29 11:50:15;;;;;;;6.03;2.90;;;7.90;79.70;;;;;;5104316;28;20024;-43
2020/12/29 11:52:42;;;;;;;4.70;2.85;;;7.90;79.70;;;;;;5104451;28;20032;-43
2020/12/29 11:55:09;;;;;;;3.65;2.83;;;7.80;79.60;;;;;;5103852;28;20028;-43
2020/12/29 11:57:35;;;;;;;5.55;2.90;;;7.80;79.70;;;;;;5104159;28;20032;-43
2020/12/29 12:00:03;;;;;;;4.22;3.08;;;7.80;79.60;;;;;;5103862;28;20028;-44
2020/12/29 12:02:29;;;;;;;3.83;2.78;;;7.80;79.70;;;;;;5102565;28;20035;-43
2020/12/29 12:04:55;;;;;;;6.18;3.45;;;7.80;79.70;;;;;;5103887;28;20090;-43
2020/12/29 12:07:21;;;;;;;5.47;3.13;;;7.80;79.70;;;;;;5089536;28;20038;-43
2020/12/29 12:09:47;;;;;;;3.95;2.80;;;7.80;79.70;;;;;;5083754;28;20016;-43
2020/12/29 12:12:13;;;;;;;4.43;2.80;;;7.80;79.70;;;;;;5083691;28;20029;-42
2020/12/29 12:14:40;;;;;;;5.38;3.40;;;7.80;79.80;;;;;;5083432;28;20062;-43
2020/12/29 12:17:06;;;;;;;5.15;3.25;;;7.80;79.80;;;;;;5083116;28;20063;-42
2020/12/29 12:19:32;;;;;;;4.65;3.08;;;7.70;79.70;;;;;;5083476;28;20028;-42
2020/12/29 12:21:58;;;;;;;2.75;2.53;;;7.70;79.70;;;;;;5082775;28;20024;-43
2020/12/29 12:24:24;;;;;;;3.95;2.80;;;7.70;79.70;;;;;;5083051;28;20036;-43
2020/12/29 12:26:53;;;;;;;4.25;2.80;;;7.70;79.80;;;;;;5083347;28;20033;-43
2020/12/29 12:29:19;;;;;;;5.40;3.25;;;7.70;79.70;;;;;;5083326;28;20020;-43
2020/12/29 12:31:45;;;;;;;4.28;2.88;;;7.70;79.80;;;;;;5083126;28;20029;-43
2020/12/29 12:34:12;;;;;;;4.82;3.38;;;7.70;79.80;;;;;;5082910;28;20048;-43
2020/12/29 12:36:38;;;;;;;3.90;3.00;;;7.70;79.80;;;;;;5084627;28;20027;-42
2020/12/29 12:39:05;;;;;;;4.70;3.30;;;7.70;79.80;;;;;;5103558;28;20020;-43
2020/12/29 12:41:31;;;;;;;4.70;3.27;;;7.70;79.80;;;;;;5101980;28;20020;-43
2020/12/29 12:43:57;;;;;;;3.78;2.72;;;7.60;79.80;;;;;;5087581;28;20872;-43
2020/12/29 12:46:23;;;;;;;4.35;3.47;;;7.60;79.70;;;;;;5103070;28;20036;-43
2020/12/29 12:48:49;;;;;;;4.60;3.10;;;7.60;79.80;;;;;;5103386;28;20028;-43
2020/12/29 12:51:16;;;;;;;4.55;3.15;;;7.60;79.70;;;;;;5103251;28;20077;-43
2020/12/29 12:53:43;;;;;;;4.50;2.50;;;7.60;79.80;;;;;;5103327;28;20035;-43
2020/12/29 12:56:15;;;;;;;4.65;3.38;;;7.60;79.70;;;;;;5103057;28;20095;-43
2020/12/29 12:58:44;;;;;;;4.80;3.15;;;7.60;79.90;;;;;;5103158;28;20040;-43
2020/12/29 13:01:19;;;;;;;3.47;3.00;;;7.60;79.80;;;;;;5102926;28;20024;-43